sensor_id;sensor_type;location;lat;lon;timestamp;P1;durP1;ratioP1;P2;durP2;ratioP2
1475;SDS011;730;48.870;12.542;2024-01-11T00:01:58;28.95;;;20.77;;
1475;SDS011;730;48.870;12.542;2024-01-11T00:04:24;28.80;;;20.48;;
1475;SDS011;730;48.870;12.542;2024-01-11T00:06:51;30.45;;;21.45;;
1475;SDS011;730;48.870;12.542;2024-01-11T00:09:17;31.73;;;21.02;;
1475;SDS011;730;48.870;12.542;2024-01-11T00:11:43;27.38;;;19.25;;
1475;SDS011;730;48.870;12.542;2024-01-11T00:14:10;31.30;;;20.20;;
1475;SDS011;730;48.870;12.542;2024-01-11T00:16:36;37.00;;;21.20;;
1475;SDS011;730;48.870;12.542;2024-01-11T00:19:02;35.45;;;22.63;;
1475;SDS011;730;48.870;12.542;2024-01-11T00:21:28;32.33;;;20.30;;
1475;SDS011;730;48.870;12.542;2024-01-11T00:23:54;28.20;;;19.60;;
1475;SDS011;730;48.870;12.542;2024-01-11T00:26:20;26.92;;;17.75;;
1475;SDS011;730;48.870;12.542;2024-01-11T00:28:46;28.23;;;19.35;;
1475;SDS011;730;48.870;12.542;2024-01-11T00:31:12;33.20;;;19.95;;
1475;SDS011;730;48.870;12.542;2024-01-11T00:33:38;29.02;;;20.90;;
1475;SDS011;730;48.870;12.542;2024-01-11T00:36:05;27.23;;;18.95;;
1475;SDS011;730;48.870;12.542;2024-01-11T00:38:31;30.98;;;20.83;;
1475;SDS011;730;48.870;12.542;2024-01-11T00:40:57;30.98;;;22.15;;
1475;SDS011;730;48.870;12.542;2024-01-11T00:43:23;26.20;;;18.35;;
1475;SDS011;730;48.870;12.542;2024-01-11T00:45:49;30.40;;;20.65;;
1475;SDS011;730;48.870;12.542;2024-01-11T00:48:15;30.38;;;20.05;;
1475;SDS011;730;48.870;12.542;2024-01-11T00:50:41;28.40;;;19.77;;
1475;SDS011;730;48.870;12.542;2024-01-11T00:53:07;26.63;;;17.38;;
1475;SDS011;730;48.870;12.542;2024-01-11T00:55:33;27.55;;;18.10;;
1475;SDS011;730;48.870;12.542;2024-01-11T00:57:59;32.78;;;19.63;;
1475;SDS011;730;48.870;12.542;2024-01-11T01:00:26;33.67;;;20.50;;
1475;SDS011;730;48.870;12.542;2024-01-11T01:02:53;27.08;;;18.38;;
1475;SDS011;730;48.870;12.542;2024-01-11T01:05:19;29.88;;;18.05;;
1475;SDS011;730;48.870;12.542;2024-01-11T01:07:45;27.05;;;20.30;;
1475;SDS011;730;48.870;12.542;2024-01-11T01:10:11;29.85;;;18.80;;
1475;SDS011;730;48.870;12.542;2024-01-11T01:12:37;30.48;;;19.33;;
1475;SDS011;730;48.870;12.542;2024-01-11T01:15:08;32.70;;;19.55;;
1475;SDS011;730;48.870;12.542;2024-01-11T01:17:42;38.08;;;20.70;;
1475;SDS011;730;48.870;12.542;2024-01-11T01:20:08;32.00;;;20.70;;
1475;SDS011;730;48.870;12.542;2024-01-11T01:22:34;29.80;;;19.45;;
1475;SDS011;730;48.870;12.542;2024-01-11T01:25:00;28.90;;;20.90;;
1475;SDS011;730;48.870;12.542;2024-01-11T01:27:26;28.10;;;19.23;;
1475;SDS011;730;48.870;12.542;2024-01-11T01:29:52;26.60;;;20.27;;
1475;SDS011;730;48.870;12.542;2024-01-11T01:32:18;29.98;;;21.73;;
1475;SDS011;730;48.870;12.542;2024-01-11T01:34:44;31.77;;;20.15;;
1475;SDS011;730;48.870;12.542;2024-01-11T01:37:10;28.38;;;19.20;;
1475;SDS011;730;48.870;12.542;2024-01-11T01:39:37;27.50;;;19.13;;
1475;SDS011;730;48.870;12.542;2024-01-11T01:42:04;32.22;;;20.27;;
1475;SDS011;730;48.870;12.542;2024-01-11T01:44:32;30.85;;;19.70;;
1475;SDS011;730;48.870;12.542;2024-01-11T01:46:58;27.50;;;19.05;;
1475;SDS011;730;48.870;12.542;2024-01-11T01:49:24;33.47;;;21.40;;
1475;SDS011;730;48.870;12.542;2024-01-11T01:51:51;26.15;;;18.35;;
1475;SDS011;730;48.870;12.542;2024-01-11T01:54:18;33.35;;;20.98;;
1475;SDS011;730;48.870;12.542;2024-01-11T01:56:46;27.73;;;18.40;;
1475;SDS011;730;48.870;12.542;2024-01-11T01:59:12;30.33;;;20.38;;
1475;SDS011;730;48.870;12.542;2024-01-11T02:01:40;26.70;;;19.05;;
1475;SDS011;730;48.870;12.542;2024-01-11T02:04:06;25.85;;;18.73;;
1475;SDS011;730;48.870;12.542;2024-01-11T02:06:32;28.50;;;18.35;;
1475;SDS011;730;48.870;12.542;2024-01-11T02:09:00;32.60;;;19.45;;
1475;SDS011;730;48.870;12.542;2024-01-11T02:11:30;26.20;;;18.30;;
1475;SDS011;730;48.870;12.542;2024-01-11T02:13:56;23.42;;;18.20;;
1475;SDS011;730;48.870;12.542;2024-01-11T02:16:23;31.65;;;19.42;;
1475;SDS011;730;48.870;12.542;2024-01-11T02:18:49;26.00;;;17.88;;
1475;SDS011;730;48.870;12.542;2024-01-11T02:21:15;31.10;;;18.85;;
1475;SDS011;730;48.870;12.542;2024-01-11T02:23:43;31.23;;;21.00;;
1475;SDS011;730;48.870;12.542;2024-01-11T02:26:13;28.92;;;20.30;;
1475;SDS011;730;48.870;12.542;2024-01-11T02:28:43;26.33;;;18.80;;
1475;SDS011;730;48.870;12.542;2024-01-11T02:31:10;27.80;;;18.42;;
1475;SDS011;730;48.870;12.542;2024-01-11T02:33:37;29.67;;;17.90;;
1475;SDS011;730;48.870;12.542;2024-01-11T02:36:04;31.90;;;20.73;;
1475;SDS011;730;48.870;12.542;2024-01-11T02:38:31;24.98;;;19.00;;
1475;SDS011;730;48.870;12.542;2024-01-11T02:40:59;29.42;;;20.70;;
1475;SDS011;730;48.870;12.542;2024-01-11T02:43:25;30.67;;;20.23;;
1475;SDS011;730;48.870;12.542;2024-01-11T02:45:54;27.85;;;18.30;;
1475;SDS011;730;48.870;12.542;2024-01-11T02:48:21;28.60;;;19.77;;
1475;SDS011;730;48.870;12.542;2024-01-11T02:50:48;25.55;;;17.20;;
1475;SDS011;730;48.870;12.542;2024-01-11T02:53:14;25.30;;;18.40;;
1475;SDS011;730;48.870;12.542;2024-01-11T02:55:40;31.25;;;18.90;;
1475;SDS011;730;48.870;12.542;2024-01-11T02:58:08;28.98;;;19.40;;
1475;SDS011;730;48.870;12.542;2024-01-11T03:00:34;30.60;;;20.88;;
1475;SDS011;730;48.870;12.542;2024-01-11T03:03:00;27.90;;;19.90;;
1475;SDS011;730;48.870;12.542;2024-01-11T03:05:26;27.70;;;19.30;;
1475;SDS011;730;48.870;12.542;2024-01-11T03:07:53;29.40;;;18.70;;
1475;SDS011;730;48.870;12.542;2024-01-11T03:10:19;29.48;;;19.52;;
1475;SDS011;730;48.870;12.542;2024-01-11T03:12:45;31.38;;;19.63;;
1475;SDS011;730;48.870;12.542;2024-01-11T03:15:12;28.95;;;18.98;;
1475;SDS011;730;48.870;12.542;2024-01-11T03:17:38;29.88;;;20.95;;
1475;SDS011;730;48.870;12.542;2024-01-11T03:20:04;31.80;;;20.48;;
1475;SDS011;730;48.870;12.542;2024-01-11T03:22:31;28.52;;;19.55;;
1475;SDS011;730;48.870;12.542;2024-01-11T03:24:57;31.77;;;19.40;;
1475;SDS011;730;48.870;12.542;2024-01-11T03:27:23;32.38;;;20.83;;
1475;SDS011;730;48.870;12.542;2024-01-11T03:29:49;30.02;;;19.38;;
1475;SDS011;730;48.870;12.542;2024-01-11T03:32:15;34.65;;;19.98;;
1475;SDS011;730;48.870;12.542;2024-01-11T03:34:41;28.02;;;19.15;;
1475;SDS011;730;48.870;12.542;2024-01-11T03:37:08;29.70;;;20.40;;
1475;SDS011;730;48.870;12.542;2024-01-11T03:39:34;27.40;;;19.80;;
1475;SDS011;730;48.870;12.542;2024-01-11T03:42:00;34.85;;;21.77;;
1475;SDS011;730;48.870;12.542;2024-01-11T03:44:28;30.42;;;21.95;;
1475;SDS011;730;48.870;12.542;2024-01-11T03:46:54;32.97;;;20.70;;
1475;SDS011;730;48.870;12.542;2024-01-11T03:49:20;29.20;;;20.88;;
1475;SDS011;730;48.870;12.542;2024-01-11T03:51:46;38.95;;;21.42;;
1475;SDS011;730;48.870;12.542;2024-01-11T03:54:12;33.03;;;20.80;;
1475;SDS011;730;48.870;12.542;2024-01-11T03:56:38;29.92;;;20.80;;
1475;SDS011;730;48.870;12.542;2024-01-11T03:59:05;32.95;;;22.48;;
1475;SDS011;730;48.870;12.542;2024-01-11T04:01:31;33.40;;;19.15;;
1475;SDS011;730;48.870;12.542;2024-01-11T04:03:58;28.17;;;19.92;;
1475;SDS011;730;48.870;12.542;2024-01-11T04:06:24;33.15;;;21.45;;
1475;SDS011;730;48.870;12.542;2024-01-11T04:08:51;31.42;;;21.15;;
1475;SDS011;730;48.870;12.542;2024-01-11T04:11:17;32.40;;;21.77;;
1475;SDS011;730;48.870;12.542;2024-01-11T04:13:43;28.98;;;20.48;;
1475;SDS011;730;48.870;12.542;2024-01-11T04:16:13;29.80;;;19.05;;
1475;SDS011;730;48.870;12.542;2024-01-11T04:18:39;35.83;;;21.42;;
1475;SDS011;730;48.870;12.542;2024-01-11T04:21:05;34.28;;;23.85;;
1475;SDS011;730;48.870;12.542;2024-01-11T04:23:32;35.50;;;22.95;;
1475;SDS011;730;48.870;12.542;2024-01-11T04:25:58;33.95;;;19.85;;
1475;SDS011;730;48.870;12.542;2024-01-11T04:28:24;34.38;;;21.92;;
1475;SDS011;730;48.870;12.542;2024-01-11T04:30:50;28.05;;;20.40;;
1475;SDS011;730;48.870;12.542;2024-01-11T04:33:16;29.30;;;21.77;;
1475;SDS011;730;48.870;12.542;2024-01-11T04:35:42;31.38;;;19.20;;
1475;SDS011;730;48.870;12.542;2024-01-11T04:38:08;33.03;;;20.27;;
1475;SDS011;730;48.870;12.542;2024-01-11T04:40:34;36.33;;;22.13;;
1475;SDS011;730;48.870;12.542;2024-01-11T04:43:00;31.65;;;20.27;;
1475;SDS011;730;48.870;12.542;2024-01-11T04:45:27;34.47;;;21.98;;
1475;SDS011;730;48.870;12.542;2024-01-11T04:47:53;28.08;;;20.55;;
1475;SDS011;730;48.870;12.542;2024-01-11T04:50:19;29.52;;;20.88;;
1475;SDS011;730;48.870;12.542;2024-01-11T04:52:45;31.77;;;19.45;;
1475;SDS011;730;48.870;12.542;2024-01-11T04:55:11;30.83;;;21.27;;
1475;SDS011;730;48.870;12.542;2024-01-11T04:57:37;32.97;;;21.40;;
1475;SDS011;730;48.870;12.542;2024-01-11T05:00:03;29.63;;;20.55;;
1475;SDS011;730;48.870;12.542;2024-01-11T05:02:30;31.52;;;19.60;;
1475;SDS011;730;48.870;12.542;2024-01-11T05:04:56;33.47;;;21.67;;
1475;SDS011;730;48.870;12.542;2024-01-11T05:07:22;26.35;;;20.02;;
1475;SDS011;730;48.870;12.542;2024-01-11T05:09:48;31.70;;;19.98;;
1475;SDS011;730;48.870;12.542;2024-01-11T05:12:14;30.70;;;20.70;;
1475;SDS011;730;48.870;12.542;2024-01-11T05:14:41;33.60;;;21.80;;
1475;SDS011;730;48.870;12.542;2024-01-11T05:17:07;29.02;;;19.42;;
1475;SDS011;730;48.870;12.542;2024-01-11T05:19:33;28.60;;;18.73;;
1475;SDS011;730;48.870;12.542;2024-01-11T05:22:00;32.42;;;21.40;;
1475;SDS011;730;48.870;12.542;2024-01-11T05:24:26;33.40;;;21.05;;
1475;SDS011;730;48.870;12.542;2024-01-11T05:26:52;32.25;;;19.60;;
1475;SDS011;730;48.870;12.542;2024-01-11T05:29:18;29.40;;;20.88;;
1475;SDS011;730;48.870;12.542;2024-01-11T05:31:44;34.50;;;23.35;;
1475;SDS011;730;48.870;12.542;2024-01-11T05:34:10;32.55;;;20.55;;
1475;SDS011;730;48.870;12.542;2024-01-11T05:36:38;30.35;;;19.27;;
1475;SDS011;730;48.870;12.542;2024-01-11T05:39:04;28.88;;;19.95;;
1475;SDS011;730;48.870;12.542;2024-01-11T05:41:30;30.02;;;20.33;;
1475;SDS011;730;48.870;12.542;2024-01-11T05:43:56;30.83;;;20.10;;
1475;SDS011;730;48.870;12.542;2024-01-11T05:46:22;35.10;;;20.75;;
1475;SDS011;730;48.870;12.542;2024-01-11T05:48:48;30.05;;;19.13;;
1475;SDS011;730;48.870;12.542;2024-01-11T05:51:14;28.88;;;19.52;;
1475;SDS011;730;48.870;12.542;2024-01-11T05:53:40;31.27;;;18.92;;
1475;SDS011;730;48.870;12.542;2024-01-11T05:56:09;29.35;;;18.67;;
1475;SDS011;730;48.870;12.542;2024-01-11T05:58:36;25.67;;;18.17;;
1475;SDS011;730;48.870;12.542;2024-01-11T06:01:06;29.70;;;19.20;;
1475;SDS011;730;48.870;12.542;2024-01-11T06:03:32;33.70;;;19.63;;
1475;SDS011;730;48.870;12.542;2024-01-11T06:06:00;34.22;;;20.95;;
1475;SDS011;730;48.870;12.542;2024-01-11T06:08:28;36.30;;;23.35;;
1475;SDS011;730;48.870;12.542;2024-01-11T06:10:55;31.40;;;20.90;;
1475;SDS011;730;48.870;12.542;2024-01-11T06:13:21;33.80;;;23.55;;
1475;SDS011;730;48.870;12.542;2024-01-11T06:15:47;34.17;;;22.05;;
1475;SDS011;730;48.870;12.542;2024-01-11T06:18:14;36.55;;;24.05;;
1475;SDS011;730;48.870;12.542;2024-01-11T06:20:40;31.52;;;21.10;;
1475;SDS011;730;48.870;12.542;2024-01-11T06:23:06;31.15;;;20.90;;
1475;SDS011;730;48.870;12.542;2024-01-11T06:25:32;27.17;;;18.77;;
1475;SDS011;730;48.870;12.542;2024-01-11T06:27:59;28.48;;;19.13;;
1475;SDS011;730;48.870;12.542;2024-01-11T06:30:25;34.80;;;21.08;;
1475;SDS011;730;48.870;12.542;2024-01-11T06:32:51;26.70;;;19.23;;
1475;SDS011;730;48.870;12.542;2024-01-11T06:35:17;28.67;;;18.63;;
1475;SDS011;730;48.870;12.542;2024-01-11T06:37:43;29.60;;;19.45;;
1475;SDS011;730;48.870;12.542;2024-01-11T06:40:09;31.42;;;21.77;;
1475;SDS011;730;48.870;12.542;2024-01-11T06:42:36;33.33;;;21.00;;
1475;SDS011;730;48.870;12.542;2024-01-11T06:45:02;30.30;;;20.58;;
1475;SDS011;730;48.870;12.542;2024-01-11T06:47:28;30.25;;;20.77;;
1475;SDS011;730;48.870;12.542;2024-01-11T06:49:55;28.90;;;18.80;;
1475;SDS011;730;48.870;12.542;2024-01-11T06:52:21;34.97;;;20.85;;
1475;SDS011;730;48.870;12.542;2024-01-11T06:54:47;34.58;;;22.30;;
1475;SDS011;730;48.870;12.542;2024-01-11T06:57:13;28.55;;;19.48;;
1475;SDS011;730;48.870;12.542;2024-01-11T06:59:39;38.95;;;22.80;;
1475;SDS011;730;48.870;12.542;2024-01-11T07:02:05;31.80;;;20.65;;
1475;SDS011;730;48.870;12.542;2024-01-11T07:04:31;27.65;;;19.73;;
1475;SDS011;730;48.870;12.542;2024-01-11T07:06:57;30.73;;;18.08;;
1475;SDS011;730;48.870;12.542;2024-01-11T07:09:23;32.97;;;19.73;;
1475;SDS011;730;48.870;12.542;2024-01-11T07:11:49;28.17;;;20.38;;
1475;SDS011;730;48.870;12.542;2024-01-11T07:14:15;29.40;;;20.73;;
1475;SDS011;730;48.870;12.542;2024-01-11T07:16:41;30.25;;;19.15;;
1475;SDS011;730;48.870;12.542;2024-01-11T07:19:07;30.85;;;20.58;;
1475;SDS011;730;48.870;12.542;2024-01-11T07:21:34;28.17;;;19.33;;
1475;SDS011;730;48.870;12.542;2024-01-11T07:24:00;30.67;;;20.50;;
1475;SDS011;730;48.870;12.542;2024-01-11T07:26:26;31.92;;;20.98;;
1475;SDS011;730;48.870;12.542;2024-01-11T07:28:53;30.50;;;19.13;;
1475;SDS011;730;48.870;12.542;2024-01-11T07:31:21;29.98;;;19.65;;
1475;SDS011;730;48.870;12.542;2024-01-11T07:33:47;26.65;;;18.83;;
1475;SDS011;730;48.870;12.542;2024-01-11T07:36:14;30.60;;;19.17;;
1475;SDS011;730;48.870;12.542;2024-01-11T07:38:40;27.63;;;18.05;;
1475;SDS011;730;48.870;12.542;2024-01-11T07:41:06;35.83;;;22.13;;
1475;SDS011;730;48.870;12.542;2024-01-11T07:43:32;26.92;;;17.60;;
1475;SDS011;730;48.870;12.542;2024-01-11T07:46:03;32.42;;;20.05;;
1475;SDS011;730;48.870;12.542;2024-01-11T07:48:31;29.98;;;20.33;;
1475;SDS011;730;48.870;12.542;2024-01-11T07:50:57;31.88;;;18.73;;
1475;SDS011;730;48.870;12.542;2024-01-11T07:53:24;32.70;;;19.38;;
1475;SDS011;730;48.870;12.542;2024-01-11T07:55:51;31.60;;;22.30;;
1475;SDS011;730;48.870;12.542;2024-01-11T07:58:18;31.17;;;21.40;;
1475;SDS011;730;48.870;12.542;2024-01-11T08:00:46;30.00;;;20.58;;
1475;SDS011;730;48.870;12.542;2024-01-11T08:03:14;37.95;;;24.30;;
1475;SDS011;730;48.870;12.542;2024-01-11T08:05:40;31.95;;;22.83;;
1475;SDS011;730;48.870;12.542;2024-01-11T08:08:08;38.25;;;23.38;;
1475;SDS011;730;48.870;12.542;2024-01-11T08:10:34;33.45;;;23.83;;
1475;SDS011;730;48.870;12.542;2024-01-11T08:13:00;34.38;;;20.73;;
1475;SDS011;730;48.870;12.542;2024-01-11T08:15:28;33.15;;;20.23;;
1475;SDS011;730;48.870;12.542;2024-01-11T08:17:54;38.97;;;24.75;;
1475;SDS011;730;48.870;12.542;2024-01-11T08:20:20;33.13;;;22.00;;
1475;SDS011;730;48.870;12.542;2024-01-11T08:22:46;30.30;;;22.70;;
1475;SDS011;730;48.870;12.542;2024-01-11T08:25:12;31.45;;;22.13;;
1475;SDS011;730;48.870;12.542;2024-01-11T08:27:39;36.55;;;23.40;;
1475;SDS011;730;48.870;12.542;2024-01-11T08:30:05;35.30;;;22.23;;
1475;SDS011;730;48.870;12.542;2024-01-11T08:32:31;28.52;;;21.20;;
1475;SDS011;730;48.870;12.542;2024-01-11T08:35:05;36.78;;;23.42;;
1475;SDS011;730;48.870;12.542;2024-01-11T08:37:31;32.47;;;23.27;;
1475;SDS011;730;48.870;12.542;2024-01-11T08:39:58;34.45;;;22.70;;
1475;SDS011;730;48.870;12.542;2024-01-11T08:42:24;30.45;;;21.83;;
1475;SDS011;730;48.870;12.542;2024-01-11T08:44:50;34.78;;;22.67;;
1475;SDS011;730;48.870;12.542;2024-01-11T08:47:17;31.55;;;21.67;;
1475;SDS011;730;48.870;12.542;2024-01-11T08:49:43;32.85;;;22.38;;
1475;SDS011;730;48.870;12.542;2024-01-11T08:52:09;30.73;;;21.67;;
1475;SDS011;730;48.870;12.542;2024-01-11T08:54:35;34.88;;;24.33;;
1475;SDS011;730;48.870;12.542;2024-01-11T08:57:01;36.83;;;23.70;;
1475;SDS011;730;48.870;12.542;2024-01-11T08:59:28;30.92;;;23.02;;
1475;SDS011;730;48.870;12.542;2024-01-11T09:01:55;31.40;;;22.50;;
1475;SDS011;730;48.870;12.542;2024-01-11T09:04:21;32.03;;;23.90;;
1475;SDS011;730;48.870;12.542;2024-01-11T09:06:47;33.00;;;23.27;;
1475;SDS011;730;48.870;12.542;2024-01-11T09:09:13;34.17;;;24.40;;
1475;SDS011;730;48.870;12.542;2024-01-11T09:11:40;35.80;;;24.90;;
1475;SDS011;730;48.870;12.542;2024-01-11T09:14:06;36.70;;;23.80;;
1475;SDS011;730;48.870;12.542;2024-01-11T09:16:33;37.08;;;23.90;;
1475;SDS011;730;48.870;12.542;2024-01-11T09:18:59;34.72;;;23.33;;
1475;SDS011;730;48.870;12.542;2024-01-11T09:21:26;30.25;;;22.65;;
1475;SDS011;730;48.870;12.542;2024-01-11T09:23:52;32.55;;;23.38;;
1475;SDS011;730;48.870;12.542;2024-01-11T09:26:18;36.17;;;26.23;;
1475;SDS011;730;48.870;12.542;2024-01-11T09:28:44;39.92;;;25.10;;
1475;SDS011;730;48.870;12.542;2024-01-11T09:31:11;33.28;;;25.63;;
1475;SDS011;730;48.870;12.542;2024-01-11T09:33:37;34.25;;;24.00;;
1475;SDS011;730;48.870;12.542;2024-01-11T09:36:03;32.72;;;22.95;;
1475;SDS011;730;48.870;12.542;2024-01-11T09:38:30;35.00;;;24.60;;
1475;SDS011;730;48.870;12.542;2024-01-11T09:41:09;30.08;;;23.77;;
1475;SDS011;730;48.870;12.542;2024-01-11T09:43:40;31.95;;;24.67;;
1475;SDS011;730;48.870;12.542;2024-01-11T09:46:07;44.97;;;26.55;;
1475;SDS011;730;48.870;12.542;2024-01-11T09:48:37;33.53;;;23.13;;
1475;SDS011;730;48.870;12.542;2024-01-11T09:51:06;35.92;;;22.88;;
1475;SDS011;730;48.870;12.542;2024-01-11T09:53:37;33.08;;;25.23;;
1475;SDS011;730;48.870;12.542;2024-01-11T09:56:06;34.45;;;24.65;;
1475;SDS011;730;48.870;12.542;2024-01-11T09:58:35;38.35;;;26.90;;
1475;SDS011;730;48.870;12.542;2024-01-11T10:01:08;36.38;;;25.80;;
1475;SDS011;730;48.870;12.542;2024-01-11T10:03:41;32.85;;;22.98;;
1475;SDS011;730;48.870;12.542;2024-01-11T10:06:07;38.75;;;24.00;;
1475;SDS011;730;48.870;12.542;2024-01-11T10:08:35;34.45;;;24.55;;
1475;SDS011;730;48.870;12.542;2024-01-11T10:11:04;33.80;;;23.67;;
1475;SDS011;730;48.870;12.542;2024-01-11T10:13:36;35.05;;;23.80;;
1475;SDS011;730;48.870;12.542;2024-01-11T10:18:33;30.35;;;23.15;;
1475;SDS011;730;48.870;12.542;2024-01-11T10:20:59;36.60;;;28.00;;
1475;SDS011;730;48.870;12.542;2024-01-11T10:23:26;31.85;;;25.55;;
1475;SDS011;730;48.870;12.542;2024-01-11T10:25:57;35.80;;;25.92;;
1475;SDS011;730;48.870;12.542;2024-01-11T10:28:26;38.33;;;24.80;;
1475;SDS011;730;48.870;12.542;2024-01-11T10:30:52;34.65;;;26.70;;
1475;SDS011;730;48.870;12.542;2024-01-11T10:33:19;39.05;;;25.60;;
1475;SDS011;730;48.870;12.542;2024-01-11T10:35:47;41.25;;;25.33;;
1475;SDS011;730;48.870;12.542;2024-01-11T10:38:14;30.60;;;25.58;;
1475;SDS011;730;48.870;12.542;2024-01-11T10:40:41;37.70;;;24.92;;
1475;SDS011;730;48.870;12.542;2024-01-11T10:43:11;35.80;;;26.25;;
1475;SDS011;730;48.870;12.542;2024-01-11T10:45:38;32.85;;;25.35;;
1475;SDS011;730;48.870;12.542;2024-01-11T10:48:14;36.50;;;23.60;;
1475;SDS011;730;48.870;12.542;2024-01-11T10:50:46;35.85;;;25.95;;
1475;SDS011;730;48.870;12.542;2024-01-11T10:56:21;33.10;;;24.48;;
1475;SDS011;730;48.870;12.542;2024-01-11T10:58:48;29.90;;;22.77;;
1475;SDS011;730;48.870;12.542;2024-01-11T11:01:15;32.63;;;24.45;;
1475;SDS011;730;48.870;12.542;2024-01-11T11:03:43;37.67;;;24.92;;
1475;SDS011;730;48.870;12.542;2024-01-11T11:06:13;29.83;;;23.88;;
1475;SDS011;730;48.870;12.542;2024-01-11T11:08:41;38.42;;;26.05;;
1475;SDS011;730;48.870;12.542;2024-01-11T11:11:08;35.45;;;23.17;;
1475;SDS011;730;48.870;12.542;2024-01-11T11:13:35;34.15;;;24.67;;
1475;SDS011;730;48.870;12.542;2024-01-11T11:16:02;33.97;;;26.73;;
1475;SDS011;730;48.870;12.542;2024-01-11T11:18:29;32.97;;;26.30;;
1475;SDS011;730;48.870;12.542;2024-01-11T11:20:56;30.65;;;24.15;;
1475;SDS011;730;48.870;12.542;2024-01-11T11:23:23;29.35;;;23.58;;
1475;SDS011;730;48.870;12.542;2024-01-11T11:25:49;32.45;;;25.20;;
1475;SDS011;730;48.870;12.542;2024-01-11T11:28:19;32.75;;;24.23;;
1475;SDS011;730;48.870;12.542;2024-01-11T11:30:47;33.75;;;24.42;;
1475;SDS011;730;48.870;12.542;2024-01-11T11:33:22;32.15;;;23.65;;
1475;SDS011;730;48.870;12.542;2024-01-11T11:35:53;35.63;;;24.55;;
1475;SDS011;730;48.870;12.542;2024-01-11T11:38:22;34.53;;;23.92;;
1475;SDS011;730;48.870;12.542;2024-01-11T11:40:51;31.90;;;24.23;;
1475;SDS011;730;48.870;12.542;2024-01-11T11:46:13;35.10;;;23.45;;
1475;SDS011;730;48.870;12.542;2024-01-11T11:51:06;32.87;;;24.37;;
1475;SDS011;730;48.870;12.542;2024-01-11T11:53:33;33.72;;;24.05;;
1475;SDS011;730;48.870;12.542;2024-01-11T11:56:00;34.38;;;24.40;;
1475;SDS011;730;48.870;12.542;2024-01-11T11:58:27;34.42;;;23.85;;
1475;SDS011;730;48.870;12.542;2024-01-11T12:00:57;37.70;;;26.05;;
1475;SDS011;730;48.870;12.542;2024-01-11T12:03:28;33.03;;;24.95;;
1475;SDS011;730;48.870;12.542;2024-01-11T12:05:57;34.38;;;26.00;;
1475;SDS011;730;48.870;12.542;2024-01-11T12:08:24;30.77;;;24.77;;
1475;SDS011;730;48.870;12.542;2024-01-11T12:10:50;31.80;;;24.55;;
1475;SDS011;730;48.870;12.542;2024-01-11T12:13:17;34.78;;;26.27;;
1475;SDS011;730;48.870;12.542;2024-01-11T12:15:44;36.90;;;24.58;;
1475;SDS011;730;48.870;12.542;2024-01-11T12:18:10;31.88;;;24.90;;
1475;SDS011;730;48.870;12.542;2024-01-11T12:20:36;42.15;;;25.73;;
1475;SDS011;730;48.870;12.542;2024-01-11T12:23:02;31.33;;;22.83;;
1475;SDS011;730;48.870;12.542;2024-01-11T12:25:29;28.95;;;23.48;;
1475;SDS011;730;48.870;12.542;2024-01-11T12:27:55;35.10;;;24.90;;
1475;SDS011;730;48.870;12.542;2024-01-11T12:30:27;35.25;;;25.02;;
1475;SDS011;730;48.870;12.542;2024-01-11T12:32:55;30.02;;;24.45;;
1475;SDS011;730;48.870;12.542;2024-01-11T12:35:21;33.55;;;24.83;;
1475;SDS011;730;48.870;12.542;2024-01-11T12:38:22;32.67;;;24.65;;
1475;SDS011;730;48.870;12.542;2024-01-11T12:40:41;30.80;;;23.73;;
1475;SDS011;730;48.870;12.542;2024-01-11T12:43:07;29.65;;;23.65;;
1475;SDS011;730;48.870;12.542;2024-01-11T12:45:36;32.75;;;22.85;;
1475;SDS011;730;48.870;12.542;2024-01-11T12:48:03;32.15;;;23.85;;
1475;SDS011;730;48.870;12.542;2024-01-11T12:50:33;32.67;;;23.27;;
1475;SDS011;730;48.870;12.542;2024-01-11T12:53:07;32.50;;;23.77;;
1475;SDS011;730;48.870;12.542;2024-01-11T12:55:33;29.98;;;23.70;;
1475;SDS011;730;48.870;12.542;2024-01-11T12:58:04;35.47;;;24.38;;
1475;SDS011;730;48.870;12.542;2024-01-11T13:00:30;33.88;;;24.20;;
1475;SDS011;730;48.870;12.542;2024-01-11T13:02:58;34.13;;;25.30;;
1475;SDS011;730;48.870;12.542;2024-01-11T13:05:24;33.53;;;25.00;;
1475;SDS011;730;48.870;12.542;2024-01-11T13:07:51;32.72;;;24.65;;
1475;SDS011;730;48.870;12.542;2024-01-11T13:10:17;33.75;;;24.98;;
1475;SDS011;730;48.870;12.542;2024-01-11T13:12:43;30.67;;;24.55;;
1475;SDS011;730;48.870;12.542;2024-01-11T13:15:09;29.45;;;23.80;;
1475;SDS011;730;48.870;12.542;2024-01-11T13:17:35;32.83;;;25.27;;
1475;SDS011;730;48.870;12.542;2024-01-11T13:20:01;35.88;;;25.52;;
1475;SDS011;730;48.870;12.542;2024-01-11T13:22:27;34.17;;;28.40;;
1475;SDS011;730;48.870;12.542;2024-01-11T13:24:53;31.75;;;25.95;;
1475;SDS011;730;48.870;12.542;2024-01-11T13:27:19;30.20;;;22.77;;
1475;SDS011;730;48.870;12.542;2024-01-11T13:29:46;31.38;;;23.73;;
1475;SDS011;730;48.870;12.542;2024-01-11T13:32:12;28.43;;;22.77;;
1475;SDS011;730;48.870;12.542;2024-01-11T13:34:38;35.40;;;25.50;;
1475;SDS011;730;48.870;12.542;2024-01-11T13:37:04;29.50;;;23.73;;
1475;SDS011;730;48.870;12.542;2024-01-11T13:39:31;30.57;;;25.20;;
1475;SDS011;730;48.870;12.542;2024-01-11T13:41:57;25.70;;;22.33;;
1475;SDS011;730;48.870;12.542;2024-01-11T13:44:23;26.80;;;22.70;;
1475;SDS011;730;48.870;12.542;2024-01-11T13:46:49;27.77;;;21.10;;
1475;SDS011;730;48.870;12.542;2024-01-11T13:49:17;31.90;;;21.80;;
1475;SDS011;730;48.870;12.542;2024-01-11T13:51:43;28.07;;;23.10;;
1475;SDS011;730;48.870;12.542;2024-01-11T13:54:10;28.10;;;22.77;;
1475;SDS011;730;48.870;12.542;2024-01-11T13:56:36;28.03;;;24.57;;
1475;SDS011;730;48.870;12.542;2024-01-11T13:59:02;26.00;;;21.80;;
1475;SDS011;730;48.870;12.542;2024-01-11T14:01:28;26.40;;;22.57;;
1475;SDS011;730;48.870;12.542;2024-01-11T14:03:55;24.67;;;21.20;;
1475;SDS011;730;48.870;12.542;2024-01-11T14:06:21;24.63;;;22.03;;
1475;SDS011;730;48.870;12.542;2024-01-11T14:08:47;28.30;;;23.73;;
1475;SDS011;730;48.870;12.542;2024-01-11T14:11:14;26.40;;;23.60;;
1475;SDS011;730;48.870;12.542;2024-01-11T14:13:40;26.73;;;23.93;;
1475;SDS011;730;48.870;12.542;2024-01-11T14:16:06;25.70;;;22.87;;
1475;SDS011;730;48.870;12.542;2024-01-11T14:18:32;24.73;;;21.60;;
1475;SDS011;730;48.870;12.542;2024-01-11T14:20:58;25.30;;;22.43;;
1475;SDS011;730;48.870;12.542;2024-01-11T14:23:25;24.60;;;22.00;;
1475;SDS011;730;48.870;12.542;2024-01-11T14:25:51;26.87;;;22.60;;
1475;SDS011;730;48.870;12.542;2024-01-11T14:28:17;26.40;;;21.33;;
1475;SDS011;730;48.870;12.542;2024-01-11T14:30:44;25.33;;;21.97;;
1475;SDS011;730;48.870;12.542;2024-01-11T14:33:10;25.17;;;20.50;;
1475;SDS011;730;48.870;12.542;2024-01-11T14:35:37;25.50;;;19.50;;
1475;SDS011;730;48.870;12.542;2024-01-11T14:38:03;23.70;;;21.20;;
1475;SDS011;730;48.870;12.542;2024-01-11T14:40:29;22.90;;;20.60;;
1475;SDS011;730;48.870;12.542;2024-01-11T14:42:56;24.10;;;20.90;;
1475;SDS011;730;48.870;12.542;2024-01-11T14:45:22;25.90;;;22.40;;
1475;SDS011;730;48.870;12.542;2024-01-11T14:47:48;22.07;;;19.77;;
1475;SDS011;730;48.870;12.542;2024-01-11T14:50:14;28.37;;;21.23;;
1475;SDS011;730;48.870;12.542;2024-01-11T14:52:40;29.03;;;24.17;;
1475;SDS011;730;48.870;12.542;2024-01-11T14:55:07;24.60;;;21.00;;
1475;SDS011;730;48.870;12.542;2024-01-11T14:57:35;25.60;;;21.80;;